CA-0249 weather

Stevensville Seaplane Base
Stevensville, Ontario, Canada

Public forecast

Using degrees Celsius for public forecast. Weather courtesy of forecast.io.

Closest aviation weather report (METAR) to Stevensville Seaplane Base

Closest report is Niagara Falls International Airport, 12.4 nm (23.0 km) NNE. Retrieved 2019/10/21 16:53 UTC (21 minutes ago):

KIAG 211653Z 09012KT 10SM CLR 19/08 A3001 RMK AO2 SLP164 T01890078

Closest aviation forecast (TAF) to Stevensville Seaplane Base

Closest forecast is Niagara Falls International Airport, 12.4 nm (23.0 km) NNE. Retrieved 2019/10/21 12:22 UTC (5 hours ago):

TAF KIAG 211120Z 2112/2212 09006KT P6SM SCT250 FM211500 09010KT P6SM BKN250 FM211800 10012G18KT P6SM BKN250 FM220100 13012G18KT P6SM SCT140 OVC200 WS015/17040KT FM220600 16014G20KT P6SM OVC060 FM221000 17014KT P6SM VCSH OVC040